Reading, VT

4:51 PM EDT on March 31, 2015 (GMT -0400)
Lebanon Municipal | | Change Station
CLOSE
Current Station
Airport
Location: Lebanon,
Elevation: 597 ft
Nearby Weather Stations

Elev 597 ft 43.63 °N, 72.30 °W | Updated 58 minutes ago

Partly Cloudy
Partly Cloudy
45 °F
Feels Like 40 °F
N
9
Wind Variable Wind from NNW

Today
High -- | Low -- °F
--% Chance of Precip.
Yesterday
High -- | Low -- °F
Precip. -- in
6:34 AM 7:15 PM
Waxing Gibbous, 88% visible
Pressure 29.70 in
Visibility 10.0 miles
Clouds Clear
Windchill 40 °F
Dew Point 10 °F
Humidity 24%
Rainfall 0.00 in
Snow Depth Not available.
UV 4 out of 12
Pollen 1.00 out of 12
Air Quality Not available.
Flu Activity Not available.
METAR KLEB 311953Z 33008KT 10SM CLR 07/M12 A2969 RMK AO2 SLP057 T00721122

More Conditions Fewer Conditions

Pressure 29.70 in
Visibility 10.0 miles
Clouds Clear
Windchill 40 °F
Dew Point 10 °F
Humidity 24%
Rainfall 0.00 in
Snow Depth Not available.
UV 4 out of 12
Pollen 1.00 out of 12
Air Quality Not available.
Flu Activity Not available.
METAR KLEB 311953Z 33008KT 10SM CLR 07/M12 A2969 RMK AO2 SLP057 T00721122

More Conditions Fewer Conditions

10-Day Weather Forecast

Almanac

Astronomy

Mar. 31, 2015 Rise Set
Actual Time
Civil Twilight
Nautical Twilight
Astronomical Twilight
Moon
Length of Visible Light
Length of Day
Tomorrow will be .
, % of the Moon is Illuminated

Today's Extremes

State Highs State Lows

Community

WunderPhotos

Upload Photos

1,809,826 photos uploaded!

WunderBlogs® & News

Nearby

Air Quality

  Air Quality AQ Index Pollutant
Not available.

Snow Depth

Station Depth Elevation

Earthquake Activity

City Distance Mag. Time & Date
Minimum magnitude displayed is 2.5.

Coastal Water Temperatures

Place Temperature

Stations

Nearby Weather Stations

Station Location Temp. Windchill Dew Point Humidity Wind Precip. Elev Updated Type